createdAt,value
2023-05-07T00:00:29.563Z,1010.30
2023-05-07T00:01:29.550Z,1010.38
2023-05-07T00:02:29.619Z,1010.33
2023-05-07T00:03:29.675Z,1010.34
2023-05-07T00:04:29.628Z,1010.34
2023-05-07T00:05:29.512Z,1010.35
2023-05-07T00:06:29.498Z,1010.37
2023-05-07T00:07:29.503Z,1010.41
2023-05-07T00:08:29.481Z,1010.42
2023-05-07T00:09:29.505Z,1010.45
2023-05-07T00:10:29.489Z,1010.48
2023-05-07T00:11:29.445Z,1010.48
2023-05-07T00:12:29.430Z,1010.47
2023-05-07T00:13:29.583Z,1010.47
2023-05-07T00:14:29.410Z,1010.53
2023-05-07T00:15:29.396Z,1010.55
2023-05-07T00:16:29.455Z,1010.45
2023-05-07T00:17:29.433Z,1010.50
2023-05-07T00:18:29.378Z,1010.50
2023-05-07T00:19:29.353Z,1010.52
2023-05-07T00:20:29.343Z,1010.47
2023-05-07T00:21:29.335Z,1010.52
2023-05-07T00:22:29.333Z,1010.54
2023-05-07T00:23:29.344Z,1010.53
2023-05-07T00:24:29.304Z,1010.55
2023-05-07T00:25:29.290Z,1010.50
2023-05-07T00:26:29.275Z,1010.53
2023-05-07T00:27:29.272Z,1010.54
2023-05-07T00:28:29.258Z,1010.52
2023-05-07T00:29:29.275Z,1010.50
2023-05-07T00:30:29.244Z,1010.53
2023-05-07T00:31:29.240Z,1010.54
2023-05-07T00:32:29.234Z,1010.55
2023-05-07T00:33:29.221Z,1010.54
2023-05-07T00:34:29.194Z,1010.54
2023-05-07T00:35:29.199Z,1010.54
2023-05-07T00:36:29.174Z,1010.58
2023-05-07T00:37:29.151Z,1010.61
2023-05-07T00:38:29.151Z,1010.60
2023-05-07T00:39:29.128Z,1010.62
2023-05-07T00:40:29.130Z,1010.62
2023-05-07T00:41:29.124Z,1010.65
2023-05-07T00:42:29.100Z,1010.64
2023-05-07T00:43:29.087Z,1010.65
2023-05-07T00:44:29.079Z,1010.60
2023-05-07T00:45:29.210Z,1010.65
2023-05-07T00:46:29.201Z,1010.56
2023-05-07T00:47:29.077Z,1010.60
2023-05-07T00:48:29.041Z,1010.65
2023-05-07T00:49:29.022Z,1010.58
2023-05-07T00:50:29.016Z,1010.52
2023-05-07T00:51:29.007Z,1010.57
2023-05-07T00:52:28.997Z,1010.58
2023-05-07T00:53:28.989Z,1010.57
2023-05-07T00:54:28.972Z,1010.58
2023-05-07T00:55:28.970Z,1010.51
2023-05-07T00:56:28.976Z,1010.48
2023-05-07T00:57:28.939Z,1010.56
2023-05-07T00:58:28.958Z,1010.50
2023-05-07T00:59:28.971Z,1010.50
2023-05-07T01:00:28.901Z,1010.50
2023-05-07T01:01:28.984Z,1010.43
2023-05-07T01:02:28.904Z,1010.45
2023-05-07T01:03:28.865Z,1010.45
2023-05-07T01:04:28.914Z,1010.46
2023-05-07T01:05:28.846Z,1010.50
2023-05-07T01:06:28.860Z,1010.42
2023-05-07T01:07:28.853Z,1010.45
2023-05-07T01:08:28.809Z,1010.45
2023-05-07T01:09:28.805Z,1010.41
2023-05-07T01:10:28.797Z,1010.38
2023-05-07T01:11:28.789Z,1010.42
2023-05-07T01:12:28.781Z,1010.43
2023-05-07T01:13:28.799Z,1010.41
2023-05-07T01:14:28.743Z,1010.44
2023-05-07T01:15:28.736Z,1010.43
2023-05-07T01:16:28.745Z,1010.35
2023-05-07T01:17:28.900Z,1010.39
2023-05-07T01:18:28.707Z,1010.42
2023-05-07T01:19:28.697Z,1010.42
2023-05-07T01:20:28.700Z,1010.40
2023-05-07T01:21:28.676Z,1010.45
2023-05-07T01:22:28.656Z,1010.41
2023-05-07T01:23:28.681Z,1010.47
2023-05-07T01:24:28.645Z,1010.44
2023-05-07T01:25:28.622Z,1010.43
2023-05-07T01:26:28.614Z,1010.39
2023-05-07T01:27:28.613Z,1010.38
2023-05-07T01:28:28.600Z,1010.40
2023-05-07T01:29:28.594Z,1010.36
2023-05-07T01:30:28.575Z,1010.32
2023-05-07T01:31:28.584Z,1010.40
2023-05-07T01:32:28.562Z,1010.35
2023-05-07T01:33:28.636Z,1010.33
2023-05-07T01:34:28.529Z,1010.32
2023-05-07T01:35:28.527Z,1010.30
2023-05-07T01:36:28.500Z,1010.35
2023-05-07T01:37:28.492Z,1010.30
2023-05-07T01:38:28.507Z,1010.40
2023-05-07T01:39:28.476Z,1010.31
2023-05-07T01:40:28.454Z,1010.31
2023-05-07T01:41:28.447Z,1010.27
2023-05-07T01:42:28.436Z,1010.29
2023-05-07T01:43:28.457Z,1010.31
2023-05-07T01:44:28.419Z,1010.28
2023-05-07T01:45:28.401Z,1010.26
2023-05-07T01:46:28.538Z,1010.31
2023-05-07T01:47:28.395Z,1010.29
2023-05-07T01:48:28.368Z,1010.27
2023-05-07T01:49:28.478Z,1010.33
2023-05-07T01:50:28.359Z,1010.33
2023-05-07T01:51:28.337Z,1010.33
2023-05-07T01:52:28.327Z,1010.31
2023-05-07T01:53:28.311Z,1010.27
2023-05-07T01:54:28.301Z,1010.28
2023-05-07T01:55:28.329Z,1010.25
2023-05-07T01:56:28.296Z,1010.25
2023-05-07T01:57:28.275Z,1010.22
2023-05-07T01:58:28.255Z,1010.25
2023-05-07T01:59:28.263Z,1010.27
2023-05-07T02:00:28.260Z,1010.23
2023-05-07T02:01:28.241Z,1010.29
2023-05-07T02:02:28.349Z,1010.27
2023-05-07T02:03:28.253Z,1010.25
2023-05-07T02:04:28.181Z,1010.26
2023-05-07T02:05:28.411Z,1010.29
2023-05-07T02:06:28.163Z,1010.33
2023-05-07T02:07:28.160Z,1010.32
2023-05-07T02:08:28.154Z,1010.32
2023-05-07T02:09:28.131Z,1010.31
2023-05-07T02:10:28.125Z,1010.27
2023-05-07T02:11:28.159Z,1010.27
2023-05-07T02:12:28.112Z,1010.28
2023-05-07T02:13:28.108Z,1010.32
2023-05-07T02:14:28.086Z,1010.37
2023-05-07T02:15:28.073Z,1010.34
2023-05-07T02:16:28.130Z,1010.37
2023-05-07T02:17:28.069Z,1010.36
2023-05-07T02:18:28.040Z,1010.37
2023-05-07T02:19:28.025Z,1010.32
2023-05-07T02:20:28.017Z,1010.38
2023-05-07T02:21:29.952Z,1010.36
2023-05-07T02:22:27.996Z,1010.39
2023-05-07T02:23:27.986Z,1010.41
2023-05-07T02:24:27.968Z,1010.38
2023-05-07T02:25:27.969Z,1010.50
2023-05-07T02:26:27.965Z,1010.44
2023-05-07T02:27:27.951Z,1010.46
2023-05-07T02:28:27.940Z,1010.44
2023-05-07T02:29:27.920Z,1010.48
2023-05-07T02:30:27.919Z,1010.51
2023-05-07T02:31:27.962Z,1010.49
2023-05-07T02:32:27.900Z,1010.49
2023-05-07T02:33:27.877Z,1010.48
2023-05-07T02:34:27.876Z,1010.41
2023-05-07T02:35:27.859Z,1010.50
2023-05-07T02:36:27.856Z,1010.47
2023-05-07T02:37:27.931Z,1010.44
2023-05-07T02:38:27.814Z,1010.50
2023-05-07T02:39:27.812Z,1010.46
2023-05-07T02:40:27.800Z,1010.39
2023-05-07T02:41:27.817Z,1010.44
2023-05-07T02:42:27.816Z,1010.40
2023-05-07T02:43:27.762Z,1010.40
2023-05-07T02:44:27.753Z,1010.41
2023-05-07T02:45:27.748Z,1010.42
2023-05-07T02:46:27.909Z,1010.43
2023-05-07T02:47:27.759Z,1010.43
2023-05-07T02:48:27.709Z,1010.43
2023-05-07T02:49:27.708Z,1010.47
2023-05-07T02:50:27.691Z,1010.40
2023-05-07T02:51:27.700Z,1010.42
2023-05-07T02:52:27.685Z,1010.41
2023-05-07T02:53:27.705Z,1010.40
2023-05-07T02:54:27.643Z,1010.34
2023-05-07T02:55:27.637Z,1010.38
2023-05-07T02:56:27.639Z,1010.33
2023-05-07T02:57:27.610Z,1010.34
2023-05-07T02:58:27.595Z,1010.28
2023-05-07T02:59:27.592Z,1010.31
2023-05-07T03:00:27.613Z,1010.31
2023-05-07T03:01:27.601Z,1010.30
2023-05-07T03:02:27.589Z,1010.32
2023-05-07T03:03:27.539Z,1010.33
2023-05-07T03:04:27.588Z,1010.29
2023-05-07T03:05:27.536Z,1010.25
2023-05-07T03:06:27.506Z,1010.25
2023-05-07T03:07:27.518Z,1010.24
2023-05-07T03:08:27.504Z,1010.23
2023-05-07T03:09:27.574Z,1010.34
2023-05-07T03:10:27.476Z,1010.28
2023-05-07T03:11:27.490Z,1010.29
2023-05-07T03:12:27.464Z,1010.35
2023-05-07T03:13:27.489Z,1010.27
2023-05-07T03:14:27.412Z,1010.28
2023-05-07T03:15:27.424Z,1010.27
2023-05-07T03:16:27.491Z,1010.31
2023-05-07T03:17:27.438Z,1010.28
2023-05-07T03:18:27.411Z,1010.33
2023-05-07T03:19:27.366Z,1010.28
2023-05-07T03:20:27.381Z,1010.31
2023-05-07T03:21:27.358Z,1010.29
2023-05-07T03:22:27.368Z,1010.31
2023-05-07T03:23:27.354Z,1010.27
2023-05-07T03:24:27.322Z,1010.30
2023-05-07T03:25:27.405Z,1010.32
2023-05-07T03:26:27.282Z,1010.25
2023-05-07T03:27:27.273Z,1010.28
2023-05-07T03:28:27.262Z,1010.26
2023-05-07T03:29:27.279Z,1010.26
2023-05-07T03:30:27.247Z,1010.33
2023-05-07T03:31:27.269Z,1010.37
2023-05-07T03:32:27.233Z,1010.37
2023-05-07T03:33:27.204Z,1010.41
2023-05-07T03:34:27.191Z,1010.37
2023-05-07T03:35:27.256Z,1010.41
2023-05-07T03:36:27.171Z,1010.39
2023-05-07T03:37:27.162Z,1010.45
2023-05-07T03:38:27.145Z,1010.42
2023-05-07T03:39:27.145Z,1010.46
2023-05-07T03:40:27.123Z,1010.43
2023-05-07T03:41:27.244Z,1010.50
2023-05-07T03:42:27.098Z,1010.41
2023-05-07T03:43:27.104Z,1010.50
2023-05-07T03:44:27.082Z,1010.42
2023-05-07T03:45:27.077Z,1010.38
2023-05-07T03:46:27.146Z,1010.38
2023-05-07T03:47:27.102Z,1010.32
2023-05-07T03:48:27.050Z,1010.39
2023-05-07T03:49:27.027Z,1010.40
2023-05-07T03:50:27.016Z,1010.43
2023-05-07T03:51:27.027Z,1010.44
2023-05-07T03:52:27.112Z,1010.47
2023-05-07T03:53:26.987Z,1010.53
2023-05-07T03:54:26.998Z,1010.52
2023-05-07T03:55:26.978Z,1010.56
2023-05-07T03:56:26.951Z,1010.47
2023-05-07T03:57:26.978Z,1010.49
2023-05-07T03:58:26.940Z,1010.51
2023-05-07T03:59:26.922Z,1010.46
2023-05-07T04:00:26.945Z,1010.45
2023-05-07T04:01:26.905Z,1010.49
2023-05-07T04:02:26.950Z,1010.59
2023-05-07T04:03:26.941Z,1010.57
2023-05-07T04:04:27.090Z,1010.58
2023-05-07T04:05:26.860Z,1010.60
2023-05-07T04:06:26.880Z,1010.59
2023-05-07T04:07:26.829Z,1010.61
2023-05-07T04:08:26.817Z,1010.60
2023-05-07T04:09:26.804Z,1010.58
2023-05-07T04:10:26.795Z,1010.61
2023-05-07T04:11:26.817Z,1010.65
2023-05-07T04:12:26.813Z,1010.64
2023-05-07T04:13:26.858Z,1010.66
2023-05-07T04:14:26.756Z,1010.66
2023-05-07T04:15:26.863Z,1010.62
2023-05-07T04:16:26.774Z,1010.70
2023-05-07T04:17:26.768Z,1010.71
2023-05-07T04:18:26.719Z,1010.70
2023-05-07T04:19:26.704Z,1010.66
2023-05-07T04:20:26.692Z,1010.68
2023-05-07T04:21:26.673Z,1010.67
2023-05-07T04:22:26.696Z,1010.68
2023-05-07T04:23:26.667Z,1010.66
2023-05-07T04:24:26.640Z,1010.67
2023-05-07T04:25:26.633Z,1010.65
2023-05-07T04:26:26.633Z,1010.70
2023-05-07T04:27:26.614Z,1010.67
2023-05-07T04:28:26.646Z,1010.62
2023-05-07T04:29:26.610Z,1010.65
2023-05-07T04:30:26.579Z,1010.63
2023-05-07T04:31:26.623Z,1010.64
2023-05-07T04:32:26.570Z,1010.58
2023-05-07T04:33:26.564Z,1010.64
2023-05-07T04:34:26.546Z,1010.60
2023-05-07T04:35:26.528Z,1010.61
2023-05-07T04:36:26.517Z,1010.59
2023-05-07T04:37:26.493Z,1010.57
2023-05-07T04:38:26.515Z,1010.50
2023-05-07T04:39:26.511Z,1010.49
2023-05-07T04:40:26.460Z,1010.45
2023-05-07T04:41:26.450Z,1010.46
2023-05-07T04:42:26.442Z,1010.47
2023-05-07T04:43:26.452Z,1010.47
2023-05-07T04:44:26.426Z,1010.53
2023-05-07T04:45:26.532Z,1010.48
2023-05-07T04:46:26.527Z,1010.53
2023-05-07T04:47:26.423Z,1010.55
2023-05-07T04:48:26.375Z,1010.58
2023-05-07T04:49:26.370Z,1010.58
2023-05-07T04:50:26.390Z,1010.62
2023-05-07T04:51:26.344Z,1010.56
2023-05-07T04:52:27.451Z,1010.58
2023-05-07T04:53:26.325Z,1010.56
2023-05-07T04:54:26.324Z,1010.53
2023-05-07T04:55:26.295Z,1010.59
2023-05-07T04:56:26.300Z,1010.53
2023-05-07T04:57:26.278Z,1010.56
2023-05-07T04:58:26.261Z,1010.54
2023-05-07T04:59:26.253Z,1010.59
2023-05-07T05:00:26.239Z,1010.65
2023-05-07T05:01:26.377Z,1010.72
2023-05-07T05:02:26.238Z,1010.65
2023-05-07T05:03:26.300Z,1010.65
2023-05-07T05:04:26.216Z,1010.73
2023-05-07T05:05:26.182Z,1010.65
2023-05-07T05:06:26.173Z,1010.65
2023-05-07T05:07:26.181Z,1010.63
2023-05-07T05:08:26.157Z,1010.68
2023-05-07T05:09:26.149Z,1010.69
2023-05-07T05:10:26.149Z,1010.75
2023-05-07T05:11:26.134Z,1010.74
2023-05-07T05:12:26.110Z,1010.79
2023-05-07T05:13:26.111Z,1010.72
2023-05-07T05:14:26.089Z,1010.82
2023-05-07T05:15:26.096Z,1010.81
2023-05-07T05:16:26.098Z,1010.79
2023-05-07T05:17:26.240Z,1010.83
2023-05-07T05:18:26.055Z,1010.78
2023-05-07T05:19:26.041Z,1010.88
2023-05-07T05:20:26.024Z,1010.80
2023-05-07T05:21:26.009Z,1010.78
2023-05-07T05:22:26.011Z,1010.84
2023-05-07T05:23:26.015Z,1010.74
2023-05-07T05:24:25.977Z,1010.75
2023-05-07T05:25:25.965Z,1010.76
2023-05-07T05:26:25.959Z,1010.74
2023-05-07T05:27:25.946Z,1010.73
2023-05-07T05:28:25.967Z,1010.77
2023-05-07T05:29:25.921Z,1010.77
2023-05-07T05:30:25.951Z,1010.75
2023-05-07T05:31:25.949Z,1010.77
2023-05-07T05:32:25.915Z,1010.78
2023-05-07T05:33:25.993Z,1010.93
2023-05-07T05:34:25.902Z,1010.89
2023-05-07T05:35:25.855Z,1010.91
2023-05-07T05:36:25.845Z,1010.90
2023-05-07T05:37:25.830Z,1010.91
2023-05-07T05:38:25.826Z,1010.87
2023-05-07T05:39:25.808Z,1010.96
2023-05-07T05:40:25.835Z,1010.93
2023-05-07T05:41:25.800Z,1010.91
2023-05-07T05:42:25.785Z,1010.98
2023-05-07T05:43:25.768Z,1010.99
2023-05-07T05:44:25.769Z,1011.07
2023-05-07T05:45:25.744Z,1010.99
2023-05-07T05:46:25.843Z,1011.00
2023-05-07T05:47:25.731Z,1011.00
2023-05-07T05:48:25.712Z,1011.05
2023-05-07T05:49:25.808Z,1011.01
2023-05-07T05:50:25.692Z,1011.08
2023-05-07T05:51:25.690Z,1011.08
2023-05-07T05:52:25.681Z,1011.11
2023-05-07T05:53:25.662Z,1011.06
2023-05-07T05:54:25.668Z,1011.08
2023-05-07T05:55:25.638Z,1011.11
2023-05-07T05:56:25.640Z,1011.08
2023-05-07T05:57:26.694Z,1011.11
2023-05-07T05:58:25.612Z,1011.11
2023-05-07T05:59:25.617Z,1011.12
2023-05-07T06:00:25.584Z,1011.14
2023-05-07T06:01:25.574Z,1011.06
2023-05-07T06:02:25.606Z,1011.07
2023-05-07T06:03:25.620Z,1011.07
2023-05-07T06:04:25.543Z,1011.11
2023-05-07T06:05:25.644Z,1011.09
2023-05-07T06:06:25.516Z,1011.07
2023-05-07T06:07:25.524Z,1011.12
2023-05-07T06:08:25.490Z,1011.12
2023-05-07T06:09:25.477Z,1011.09
2023-05-07T06:10:25.480Z,1011.16
2023-05-07T06:11:25.475Z,1011.10
2023-05-07T06:12:25.461Z,1011.10
2023-05-07T06:13:26.775Z,1011.07
2023-05-07T06:14:25.420Z,1011.08
2023-05-07T06:15:25.411Z,1011.10
2023-05-07T06:16:25.444Z,1011.13
2023-05-07T06:17:25.448Z,1011.17
2023-05-07T06:18:25.385Z,1011.21
2023-05-07T06:19:25.371Z,1011.22
2023-05-07T06:20:25.360Z,1011.24
2023-05-07T06:21:25.403Z,1011.28
2023-05-07T06:22:25.354Z,1011.27
2023-05-07T06:23:25.349Z,1011.30
2023-05-07T06:24:25.325Z,1011.27
2023-05-07T06:25:25.307Z,1011.17
2023-05-07T06:26:25.290Z,1011.29
2023-05-07T06:27:25.279Z,1011.19
2023-05-07T06:28:25.290Z,1011.23
2023-05-07T06:29:25.267Z,1011.23
2023-05-07T06:30:25.263Z,1011.33
2023-05-07T06:31:25.251Z,1011.28
2023-05-07T06:32:25.246Z,1011.31
2023-05-07T06:33:25.221Z,1011.31
2023-05-07T06:34:25.203Z,1011.32
2023-05-07T06:35:25.189Z,1011.36
2023-05-07T06:36:25.191Z,1011.35
2023-05-07T06:37:25.271Z,1011.35
2023-05-07T06:38:25.181Z,1011.37
2023-05-07T06:39:25.149Z,1011.41
2023-05-07T06:40:25.141Z,1011.39
2023-05-07T06:41:25.123Z,1011.36
2023-05-07T06:42:25.116Z,1011.41
2023-05-07T06:43:25.121Z,1011.46
2023-05-07T06:44:25.091Z,1011.39
2023-05-07T06:45:25.077Z,1011.36
2023-05-07T06:46:25.132Z,1011.45
2023-05-07T06:47:25.121Z,1011.41
2023-05-07T06:48:25.051Z,1011.47
2023-05-07T06:49:25.059Z,1011.45
2023-05-07T06:50:25.026Z,1011.39
2023-05-07T06:51:25.018Z,1011.36
2023-05-07T06:52:25.009Z,1011.39
2023-05-07T06:53:25.009Z,1011.44
2023-05-07T06:54:25.004Z,1011.48
2023-05-07T06:55:24.967Z,1011.45
2023-05-07T06:56:24.970Z,1011.46
2023-05-07T06:57:24.950Z,1011.36
2023-05-07T06:58:24.939Z,1011.42
2023-05-07T06:59:24.943Z,1011.45
2023-05-07T07:00:24.916Z,1011.37
2023-05-07T07:01:24.968Z,1011.36
2023-05-07T07:02:24.950Z,1011.40
2023-05-07T07:03:24.893Z,1011.36
2023-05-07T07:04:24.986Z,1011.34
2023-05-07T07:05:24.866Z,1011.42
2023-05-07T07:06:24.854Z,1011.33
2023-05-07T07:07:24.831Z,1011.38
2023-05-07T07:08:24.825Z,1011.38
2023-05-07T07:09:24.928Z,1011.35
2023-05-07T07:10:24.803Z,1011.36
2023-05-07T07:11:24.794Z,1011.35
2023-05-07T07:12:24.779Z,1011.39
2023-05-07T07:13:24.949Z,1011.35
2023-05-07T07:14:24.808Z,1011.38
2023-05-07T07:15:24.756Z,1011.36
2023-05-07T07:16:24.758Z,1011.36
2023-05-07T07:17:24.761Z,1011.35
2023-05-07T07:18:24.736Z,1011.36
2023-05-07T07:19:24.707Z,1011.48
2023-05-07T07:20:24.792Z,1011.45
2023-05-07T07:21:24.683Z,1011.48
2023-05-07T07:22:24.663Z,1011.50
2023-05-07T07:23:24.667Z,1011.43
2023-05-07T07:24:24.655Z,1011.39
2023-05-07T07:25:24.781Z,1011.46
2023-05-07T07:26:24.622Z,1011.42
2023-05-07T07:27:24.621Z,1011.53
2023-05-07T07:28:24.628Z,1011.47
2023-05-07T07:29:24.583Z,1011.51
2023-05-07T07:30:24.694Z,1011.49
2023-05-07T07:31:24.579Z,1011.44
2023-05-07T07:32:24.596Z,1011.49
2023-05-07T07:33:24.562Z,1011.53
2023-05-07T07:34:24.532Z,1011.50
2023-05-07T07:35:25.762Z,1011.52
2023-05-07T07:36:32.004Z,1011.49
2023-05-07T07:37:25.531Z,1011.48
2023-05-07T07:38:24.501Z,1011.52
2023-05-07T07:39:24.497Z,1011.46
2023-05-07T07:40:24.546Z,1011.45
2023-05-07T07:41:24.558Z,1011.46
2023-05-07T07:42:24.456Z,1011.47
2023-05-07T07:43:24.450Z,1011.48
2023-05-07T07:44:24.445Z,1011.48
2023-05-07T07:45:24.416Z,1011.50
2023-05-07T07:46:24.473Z,1011.42
2023-05-07T07:47:24.419Z,1011.43
2023-05-07T07:48:24.379Z,1011.45
2023-05-07T07:49:24.384Z,1011.47
2023-05-07T07:50:36.034Z,1011.46
2023-05-07T07:51:25.351Z,1011.54
2023-05-07T07:52:24.347Z,1011.45
2023-05-07T07:53:24.353Z,1011.50
2023-05-07T07:54:24.326Z,1011.52
2023-05-07T07:55:24.296Z,1011.50
2023-05-07T07:56:24.324Z,1011.53
2023-05-07T07:57:24.376Z,1011.50
2023-05-07T07:58:24.298Z,1011.58
2023-05-07T07:59:24.256Z,1011.51
2023-05-07T08:00:24.248Z,1011.54
2023-05-07T08:01:24.231Z,1011.50
2023-05-07T08:02:24.331Z,1011.56
2023-05-07T08:03:24.250Z,1011.52
2023-05-07T08:04:24.316Z,1011.45
2023-05-07T08:05:24.190Z,1011.50
2023-05-07T08:06:24.182Z,1011.48
2023-05-07T08:07:24.193Z,1011.48
2023-05-07T08:08:24.157Z,1011.42
2023-05-07T08:09:24.167Z,1011.46
2023-05-07T08:10:24.146Z,1011.47
2023-05-07T08:11:24.124Z,1011.46
2023-05-07T08:12:24.119Z,1011.46
2023-05-07T08:13:24.215Z,1011.43
2023-05-07T08:14:24.110Z,1011.54
2023-05-07T08:15:24.088Z,1011.43
2023-05-07T08:16:24.362Z,1011.49
2023-05-07T08:17:24.156Z,1011.48
2023-05-07T08:18:24.054Z,1011.47
2023-05-07T08:19:24.059Z,1011.48
2023-05-07T08:20:24.028Z,1011.55
2023-05-07T08:21:24.029Z,1011.53
2023-05-07T08:22:24.016Z,1011.51
2023-05-07T08:23:24.014Z,1011.54
2023-05-07T08:24:23.994Z,1011.58
2023-05-07T08:25:23.993Z,1011.55
2023-05-07T08:26:23.965Z,1011.59
2023-05-07T08:27:23.954Z,1011.53
2023-05-07T08:28:23.941Z,1011.60
2023-05-07T08:29:23.968Z,1011.61
2023-05-07T08:30:23.921Z,1011.64
2023-05-07T08:31:23.963Z,1011.63
2023-05-07T08:32:23.942Z,1011.59
2023-05-07T08:33:23.885Z,1011.65
2023-05-07T08:34:23.891Z,1011.63
2023-05-07T08:35:23.897Z,1011.72
2023-05-07T08:36:23.856Z,1011.70
2023-05-07T08:37:23.846Z,1011.63
2023-05-07T08:38:23.828Z,1011.70
2023-05-07T08:39:23.819Z,1011.65
2023-05-07T08:40:23.822Z,1011.70
2023-05-07T08:41:23.813Z,1011.64
2023-05-07T08:42:23.796Z,1011.62
2023-05-07T08:43:23.803Z,1011.63
2023-05-07T08:44:23.772Z,1011.63
2023-05-07T08:45:23.871Z,1011.64
2023-05-07T08:46:23.782Z,1011.60
2023-05-07T08:47:23.751Z,1011.62
2023-05-07T08:48:23.741Z,1011.56
2023-05-07T08:49:23.706Z,1011.66
2023-05-07T08:50:23.697Z,1011.66
2023-05-07T08:51:23.722Z,1011.66
2023-05-07T08:52:23.674Z,1011.68
2023-05-07T08:53:23.654Z,1011.68
2023-05-07T08:54:23.659Z,1011.71
2023-05-07T08:55:23.634Z,1011.69
2023-05-07T08:56:23.641Z,1011.63
2023-05-07T08:57:23.615Z,1011.67
2023-05-07T08:58:23.620Z,1011.66
2023-05-07T08:59:23.592Z,1011.71
2023-05-07T09:00:23.594Z,1011.64
2023-05-07T09:01:23.845Z,1011.62
2023-05-07T09:02:23.674Z,1011.69
2023-05-07T09:03:23.667Z,1011.66
2023-05-07T09:04:23.531Z,1011.66
2023-05-07T09:05:23.536Z,1011.70
2023-05-07T09:06:23.531Z,1011.68
2023-05-07T09:07:23.510Z,1011.61
2023-05-07T09:08:23.487Z,1011.62
2023-05-07T09:09:23.473Z,1011.64
2023-05-07T09:10:23.480Z,1011.67
2023-05-07T09:11:23.453Z,1011.64
2023-05-07T09:12:23.455Z,1011.68
2023-05-07T09:13:23.517Z,1011.60
2023-05-07T09:14:23.419Z,1011.65
2023-05-07T09:15:23.420Z,1011.63
2023-05-07T09:16:23.451Z,1011.62
2023-05-07T09:17:23.577Z,1011.60
2023-05-07T09:18:23.376Z,1011.65
2023-05-07T09:19:23.362Z,1011.64
2023-05-07T09:20:23.349Z,1011.60
2023-05-07T09:21:23.358Z,1011.60
2023-05-07T09:22:23.352Z,1011.63
2023-05-07T09:23:23.336Z,1011.64
2023-05-07T09:24:23.305Z,1011.62
2023-05-07T09:25:23.297Z,1011.62
2023-05-07T09:26:23.285Z,1011.68
2023-05-07T09:27:23.282Z,1011.60
2023-05-07T09:28:23.303Z,1011.59
2023-05-07T09:29:23.252Z,1011.67
2023-05-07T09:30:23.235Z,1011.61
2023-05-07T09:31:23.333Z,1011.62
2023-05-07T09:32:23.263Z,1011.62
2023-05-07T09:33:23.329Z,1011.63
2023-05-07T09:34:23.223Z,1011.62
2023-05-07T09:35:23.188Z,1011.68
2023-05-07T09:36:23.186Z,1011.62
2023-05-07T09:37:23.169Z,1011.67
2023-05-07T09:38:23.178Z,1011.68
2023-05-07T09:39:23.175Z,1011.67
2023-05-07T09:40:23.164Z,1011.68
2023-05-07T09:41:23.120Z,1011.71
2023-05-07T09:42:23.116Z,1011.70
2023-05-07T09:43:23.097Z,1011.68
2023-05-07T09:44:23.112Z,1011.67
2023-05-07T09:45:23.123Z,1011.63
2023-05-07T09:46:23.117Z,1011.61
2023-05-07T09:47:23.195Z,1011.57
2023-05-07T09:48:23.041Z,1011.67
2023-05-07T09:49:23.210Z,1011.65
2023-05-07T09:50:23.027Z,1011.64
2023-05-07T09:51:23.011Z,1011.70
2023-05-07T09:52:22.996Z,1011.63
2023-05-07T09:53:23.002Z,1011.63
2023-05-07T09:54:22.973Z,1011.72
2023-05-07T09:55:22.983Z,1011.71
2023-05-07T09:56:22.954Z,1011.69
2023-05-07T09:57:22.949Z,1011.68
2023-05-07T09:58:22.939Z,1011.74
2023-05-07T09:59:22.941Z,1011.69
2023-05-07T10:00:22.939Z,1011.64
2023-05-07T10:01:22.918Z,1011.71
2023-05-07T10:02:23.086Z,1011.80
2023-05-07T10:03:22.992Z,1011.67
2023-05-07T10:04:22.878Z,1011.68
2023-05-07T10:05:22.990Z,1011.62
2023-05-07T10:06:22.864Z,1011.64
2023-05-07T10:07:22.833Z,1011.64
2023-05-07T10:08:22.827Z,1011.71
2023-05-07T10:09:22.813Z,1011.70
2023-05-07T10:10:22.815Z,1011.67
2023-05-07T10:11:22.798Z,1011.74
2023-05-07T10:12:22.807Z,1011.69
2023-05-07T10:13:23.035Z,1011.72
2023-05-07T10:14:22.766Z,1011.69
2023-05-07T10:15:22.752Z,1011.72
2023-05-07T10:16:22.753Z,1011.72
2023-05-07T10:17:22.796Z,1011.70
2023-05-07T10:18:22.852Z,1011.71
2023-05-07T10:19:22.707Z,1011.72
2023-05-07T10:20:22.693Z,1011.69
2023-05-07T10:21:22.806Z,1011.73
2023-05-07T10:22:22.663Z,1011.73
2023-05-07T10:23:22.659Z,1011.62
2023-05-07T10:24:22.706Z,1011.67
2023-05-07T10:25:22.651Z,1011.67
2023-05-07T10:26:22.634Z,1011.71
2023-05-07T10:27:22.629Z,1011.74
2023-05-07T10:28:22.624Z,1011.78
2023-05-07T10:29:22.615Z,1011.78
2023-05-07T10:30:22.584Z,1011.66
2023-05-07T10:31:22.618Z,1011.64
2023-05-07T10:32:22.569Z,1011.70
2023-05-07T10:33:22.546Z,1011.79
2023-05-07T10:34:22.536Z,1011.71
2023-05-07T10:35:22.532Z,1011.72
2023-05-07T10:36:22.512Z,1011.67
2023-05-07T10:37:22.547Z,1011.68
2023-05-07T10:38:22.500Z,1011.74
2023-05-07T10:39:22.493Z,1011.68
2023-05-07T10:40:22.470Z,1011.72
2023-05-07T10:41:22.456Z,1011.73
2023-05-07T10:42:22.456Z,1011.66
2023-05-07T10:43:22.463Z,1011.69
2023-05-07T10:44:22.427Z,1011.68
2023-05-07T10:45:22.418Z,1011.67
2023-05-07T10:46:22.450Z,1011.68
2023-05-07T10:47:22.451Z,1011.73
2023-05-07T10:48:30.006Z,1011.73
2023-05-07T10:49:24.657Z,1011.68
2023-05-07T10:50:22.385Z,1011.69
2023-05-07T10:51:22.366Z,1011.72
2023-05-07T10:52:22.340Z,1011.74
2023-05-07T10:53:22.429Z,1011.72
2023-05-07T10:54:22.365Z,1011.79
2023-05-07T10:55:22.341Z,1011.77
2023-05-07T10:56:22.294Z,1011.77
2023-05-07T10:57:22.303Z,1011.78
2023-05-07T10:58:31.381Z,1011.74
2023-05-07T10:59:23.263Z,1011.67
2023-05-07T11:00:28.139Z,1011.76
2023-05-07T11:01:23.296Z,1011.73
2023-05-07T11:02:22.275Z,1011.75
2023-05-07T11:03:22.259Z,1011.70
2023-05-07T11:04:22.210Z,1011.69
2023-05-07T11:05:22.317Z,1011.68
2023-05-07T11:06:22.194Z,1011.73
2023-05-07T11:07:22.176Z,1011.73
2023-05-07T11:08:22.172Z,1011.67
2023-05-07T11:09:22.244Z,1011.75
2023-05-07T11:10:22.155Z,1011.71
2023-05-07T11:11:22.137Z,1011.72
2023-05-07T11:12:22.118Z,1011.68
2023-05-07T11:13:22.218Z,1011.75
2023-05-07T11:14:22.127Z,1011.72
2023-05-07T11:15:22.084Z,1011.67
2023-05-07T11:16:22.099Z,1011.70
2023-05-07T11:17:22.101Z,1011.78
2023-05-07T11:18:22.046Z,1011.72
2023-05-07T11:19:22.035Z,1011.61
2023-05-07T11:20:22.043Z,1011.68
2023-05-07T11:21:22.016Z,1011.62
2023-05-07T11:22:21.998Z,1011.69
2023-05-07T11:23:21.994Z,1011.70
2023-05-07T11:24:21.979Z,1011.69
2023-05-07T11:25:22.031Z,1011.64
2023-05-07T11:26:21.954Z,1011.72
2023-05-07T11:27:21.957Z,1011.66
2023-05-07T11:28:21.938Z,1011.64
2023-05-07T11:29:23.003Z,1011.69
2023-05-07T11:30:21.925Z,1011.66
2023-05-07T11:31:21.927Z,1011.70
2023-05-07T11:32:21.905Z,1011.64
2023-05-07T11:33:21.890Z,1011.70
2023-05-07T11:34:21.865Z,1011.66
2023-05-07T11:35:21.887Z,1011.68
2023-05-07T11:36:21.848Z,1011.68
2023-05-07T11:37:21.839Z,1011.61
2023-05-07T11:38:21.848Z,1011.65
2023-05-07T11:39:21.813Z,1011.58
2023-05-07T11:40:21.807Z,1011.60
2023-05-07T11:41:21.840Z,1011.60
2023-05-07T11:42:21.781Z,1011.60
2023-05-07T11:43:21.770Z,1011.55
2023-05-07T11:44:21.778Z,1011.58
2023-05-07T11:45:21.757Z,1011.66
2023-05-07T11:46:21.783Z,1011.70
2023-05-07T11:47:21.794Z,1011.64
2023-05-07T11:48:21.713Z,1011.60
2023-05-07T11:49:21.708Z,1011.65
2023-05-07T11:50:21.696Z,1011.60
2023-05-07T11:51:21.685Z,1011.57
2023-05-07T11:52:21.685Z,1011.58
2023-05-07T11:53:21.662Z,1011.57
2023-05-07T11:54:21.655Z,1011.56
2023-05-07T11:55:21.690Z,1011.54
2023-05-07T11:56:21.628Z,1011.60
2023-05-07T11:57:21.716Z,1011.64
2023-05-07T11:58:21.602Z,1011.58
2023-05-07T11:59:21.631Z,1011.58
2023-05-07T12:00:21.595Z,1011.69
2023-05-07T12:01:21.579Z,1011.61
2023-05-07T12:02:21.575Z,1011.66
2023-05-07T12:03:21.686Z,1011.64
2023-05-07T12:04:21.661Z,1011.64
2023-05-07T12:05:21.546Z,1011.60